createdAt,value
2018-10-11T00:00:59.897Z,43.10
2018-10-11T00:03:31.441Z,38.87
2018-10-11T00:06:03.193Z,44.00
2018-10-11T00:08:34.346Z,40.67
2018-10-11T00:11:06.251Z,40.13
2018-10-11T00:13:37.546Z,37.25
2018-10-11T00:16:08.964Z,41.95
2018-10-11T00:18:39.996Z,46.80
2018-10-11T00:21:11.104Z,39.40
2018-10-11T00:23:42.395Z,43.98
2018-10-11T00:26:14.749Z,45.55
2018-10-11T00:28:45.973Z,47.63
2018-10-11T00:31:18.043Z,45.00
2018-10-11T00:33:49.390Z,41.60
2018-10-11T00:38:56.488Z,34.87
2018-10-11T00:41:27.702Z,46.53
2018-10-11T00:43:59.722Z,37.98
2018-10-11T00:46:30.601Z,47.20
2018-10-11T00:49:01.883Z,47.75
2018-10-11T00:51:33.357Z,43.60
2018-10-11T00:54:04.580Z,45.97
2018-10-11T00:56:37.518Z,40.97
2018-10-11T00:59:09.399Z,46.02
2018-10-11T01:01:41.355Z,47.13
2018-10-11T01:04:12.588Z,46.65
2018-10-11T01:06:48.313Z,43.47
2018-10-11T01:09:19.230Z,46.70
2018-10-11T01:11:50.479Z,47.20
2018-10-11T01:14:21.698Z,42.83
2018-10-11T01:19:29.987Z,47.63
2018-10-11T01:22:01.122Z,41.73
2018-10-11T01:27:09.209Z,42.97
2018-10-11T01:29:41.149Z,45.23
2018-10-11T01:32:13.055Z,47.70
2018-10-11T01:34:44.863Z,39.73
2018-10-11T01:37:16.298Z,44.03
2018-10-11T01:39:48.394Z,46.45
2018-10-11T01:42:19.796Z,50.33
2018-10-11T01:44:51.118Z,39.20
2018-10-11T01:47:22.661Z,44.90
2018-10-11T01:49:53.882Z,45.53
2018-10-11T01:52:24.947Z,47.47
2018-10-11T01:54:55.824Z,40.67
2018-10-11T01:57:27.014Z,38.20
2018-10-11T02:02:34.432Z,39.07
2018-10-11T02:05:05.455Z,43.97
2018-10-11T02:10:12.289Z,47.77
2018-10-11T02:12:43.780Z,49.10
2018-10-11T02:15:15.588Z,51.43
2018-10-11T02:17:47.220Z,44.83
2018-10-11T02:20:18.441Z,44.95
2018-10-11T02:22:49.440Z,44.27
2018-10-11T02:25:20.545Z,41.00
2018-10-11T02:27:51.934Z,43.45
2018-10-11T02:30:23.067Z,48.23
2018-10-11T02:32:54.005Z,53.93
2018-10-11T02:35:25.045Z,41.02
2018-10-11T02:37:56.500Z,46.70
2018-10-11T02:40:27.456Z,41.60
2018-10-11T02:42:58.912Z,49.10
2018-10-11T02:45:30.975Z,54.73
2018-10-11T02:48:02.230Z,46.05
2018-10-11T02:50:33.095Z,46.93
2018-10-11T02:53:07.595Z,47.80
2018-10-11T02:55:39.205Z,44.57
2018-10-11T02:58:26.657Z,45.35
2018-10-11T03:00:57.942Z,49.00
2018-10-11T03:03:30.986Z,50.43
2018-10-11T03:06:02.781Z,49.10
2018-10-11T03:08:34.776Z,44.73
2018-10-11T03:11:06.705Z,42.13
2018-10-11T03:13:38.197Z,50.80
2018-10-11T03:16:09.290Z,42.73
2018-10-11T03:18:40.315Z,45.10
2018-10-11T03:21:11.367Z,45.08
2018-10-11T03:23:42.572Z,47.07
2018-10-11T03:26:13.578Z,51.35
2018-10-11T03:31:20.508Z,48.67
2018-10-11T03:33:55.476Z,51.98
2018-10-11T03:36:27.235Z,60.00
2018-10-11T03:38:58.303Z,55.90
2018-10-11T03:41:29.066Z,53.00
2018-10-11T03:44:00.220Z,52.73
2018-10-11T03:49:08.496Z,56.17
2018-10-11T03:51:40.061Z,52.37
2018-10-11T03:54:10.941Z,53.00
2018-10-11T03:56:41.936Z,54.88
2018-10-11T03:59:13.252Z,56.68
2018-10-11T04:01:45.061Z,51.17
2018-10-11T04:04:16.257Z,52.65
2018-10-11T04:06:47.064Z,47.13
2018-10-11T04:09:18.030Z,51.75
2018-10-11T04:14:24.951Z,55.40
2018-10-11T04:16:56.997Z,50.45
2018-10-11T04:19:28.341Z,57.30
2018-10-11T04:21:59.704Z,54.57
2018-10-11T04:24:30.854Z,55.30
2018-10-11T04:27:01.900Z,53.17
2018-10-11T04:32:09.363Z,52.77
2018-10-11T04:34:40.481Z,49.47
2018-10-11T04:37:11.643Z,54.40
2018-10-11T04:39:49.311Z,53.20
2018-10-11T04:42:20.802Z,52.90
2018-10-11T04:44:52.242Z,60.23
2018-10-11T04:47:23.669Z,61.97
2018-10-11T04:49:54.737Z,54.47
2018-10-11T04:52:25.899Z,55.03
2018-10-11T04:54:57.261Z,50.00
2018-10-11T04:57:28.204Z,59.30
2018-10-11T04:59:59.108Z,54.30
2018-10-11T05:02:34.439Z,66.43
2018-10-11T05:05:06.817Z,57.23
2018-10-11T05:07:38.077Z,59.93
2018-10-11T05:12:44.955Z,65.03
2018-10-11T05:17:52.510Z,57.40
2018-10-11T05:20:23.216Z,56.35
2018-10-11T05:22:53.891Z,59.17
2018-10-11T05:25:24.542Z,55.27
2018-10-11T05:27:55.100Z,63.63
2018-10-11T05:30:26.284Z,61.47
2018-10-11T05:32:57.025Z,55.63
2018-10-11T05:35:28.037Z,54.45
2018-10-11T05:37:58.910Z,54.75
2018-10-11T05:40:31.462Z,53.97
2018-10-11T05:43:02.290Z,60.25
2018-10-11T05:48:09.011Z,62.50
2018-10-11T05:50:40.257Z,61.80
2018-10-11T05:53:11.114Z,54.58
2018-10-11T05:55:42.389Z,60.43
2018-10-11T05:58:12.936Z,54.15
2018-10-11T06:03:19.379Z,56.27
2018-10-11T06:05:52.765Z,47.80
2018-10-11T06:10:59.616Z,42.87
2018-10-11T06:16:07.467Z,46.70
2018-10-11T06:18:38.402Z,48.93
2018-10-11T06:21:10.160Z,47.33
2018-10-11T06:23:41.092Z,34.77
2018-10-11T06:28:48.615Z,46.83
2018-10-11T06:31:19.463Z,43.85
2018-10-11T06:33:50.579Z,46.27
2018-10-11T06:36:21.994Z,45.15
2018-10-11T06:38:53.506Z,42.40
2018-10-11T06:41:24.282Z,44.75
2018-10-11T06:43:55.332Z,38.77
2018-10-11T06:49:03.529Z,40.77
2018-10-11T06:51:34.772Z,38.23
2018-10-11T06:54:06.763Z,39.73
2018-10-11T06:56:37.380Z,37.70
2018-10-11T06:59:08.108Z,46.85
2018-10-11T07:01:39.057Z,45.97
2018-10-11T07:04:09.887Z,46.08
2018-10-11T07:06:40.882Z,38.13
2018-10-11T07:09:11.777Z,39.70
2018-10-11T07:11:42.952Z,38.33
2018-10-11T07:14:13.805Z,41.70
2018-10-11T07:16:45.656Z,39.87
2018-10-11T07:19:17.565Z,43.73
2018-10-11T07:21:48.229Z,40.43
2018-10-11T07:26:55.718Z,42.60
2018-10-11T07:30:29.543Z,43.73
2018-10-11T07:33:01.411Z,55.13
2018-10-11T07:35:32.558Z,45.77
2018-10-11T07:38:03.627Z,52.30
2018-10-11T07:40:35.096Z,51.93
2018-10-11T07:43:07.191Z,44.95
2018-10-11T07:48:14.684Z,45.30
2018-10-11T07:50:45.271Z,47.67
2018-10-11T07:53:16.170Z,47.73
2018-10-11T07:55:46.875Z,45.33
2018-10-11T07:58:18.145Z,52.80
2018-10-11T08:00:49.246Z,45.97
2018-10-11T08:03:20.301Z,40.90
2018-10-11T08:05:51.026Z,42.78
2018-10-11T08:08:21.715Z,51.58
2018-10-11T08:10:52.426Z,47.53
2018-10-11T08:13:23.788Z,52.45
2018-10-11T08:15:54.283Z,52.58
2018-10-11T08:18:24.981Z,58.87
2018-10-11T08:20:56.121Z,45.08
2018-10-11T08:23:26.819Z,50.35
2018-10-11T08:25:57.950Z,47.97
2018-10-11T08:28:28.616Z,47.23
2018-10-11T08:30:59.963Z,52.83
2018-10-11T08:33:30.727Z,48.63
2018-10-11T08:36:01.599Z,52.83
2018-10-11T08:38:32.685Z,45.87
2018-10-11T08:41:03.703Z,50.25
2018-10-11T08:43:35.027Z,54.87
2018-10-11T08:46:06.715Z,53.02
2018-10-11T08:48:38.048Z,47.95
2018-10-11T08:51:09.032Z,54.07
2018-10-11T08:53:39.999Z,57.07
2018-10-11T08:56:10.492Z,49.63
2018-10-11T08:58:41.540Z,49.20
2018-10-11T09:01:12.195Z,47.27
2018-10-11T09:03:43.165Z,50.28
2018-10-11T09:06:13.749Z,45.00
2018-10-11T09:08:44.302Z,47.07
2018-10-11T09:11:15.533Z,44.67
2018-10-11T09:13:46.244Z,47.85
2018-10-11T09:16:17.320Z,51.83
2018-10-11T09:18:50.281Z,49.23
2018-10-11T09:21:21.057Z,48.17
2018-10-11T09:23:52.373Z,44.27
2018-10-11T09:26:23.104Z,45.28
2018-10-11T09:28:54.711Z,43.00
2018-10-11T09:31:25.517Z,39.77
2018-10-11T09:33:56.650Z,38.53
2018-10-11T09:36:27.552Z,38.20
2018-10-11T09:38:58.279Z,44.08
2018-10-11T09:41:28.977Z,43.53
2018-10-11T09:44:00.457Z,42.17
2018-10-11T09:46:31.285Z,44.07
2018-10-11T09:49:02.419Z,41.73
2018-10-11T09:51:33.112Z,39.20
2018-10-11T09:54:04.160Z,40.53
2018-10-11T09:57:20.707Z,44.25
2018-10-11T09:59:51.719Z,48.83
2018-10-11T10:02:28.637Z,46.73
2018-10-11T10:05:02.634Z,44.58
2018-10-11T10:07:37.265Z,46.30
2018-10-11T10:10:08.784Z,41.83
2018-10-11T10:12:39.683Z,45.47
2018-10-11T10:15:10.604Z,45.73
2018-10-11T10:17:44.368Z,48.13
2018-10-11T10:20:16.019Z,44.45
2018-10-11T10:22:46.665Z,47.93
2018-10-11T10:25:17.476Z,49.40
2018-10-11T10:27:48.277Z,40.92
2018-10-11T10:30:24.167Z,41.35
2018-10-11T10:35:32.869Z,40.17
2018-10-11T10:38:03.697Z,42.35
2018-10-11T10:40:34.532Z,38.90
2018-10-11T10:43:05.116Z,40.23
2018-10-11T10:45:36.376Z,40.13
2018-10-11T10:48:07.280Z,43.02
2018-10-11T10:50:38.294Z,37.77
2018-10-11T10:53:09.529Z,42.53
2018-10-11T10:55:41.005Z,49.87
2018-10-11T10:58:11.569Z,37.25
2018-10-11T11:00:42.778Z,42.10
2018-10-11T11:03:13.551Z,47.80
2018-10-11T11:05:44.102Z,41.17
2018-10-11T11:08:15.280Z,47.33
2018-10-11T11:10:46.084Z,45.10
2018-10-11T11:13:19.811Z,49.10
2018-10-11T11:15:50.375Z,38.70
2018-10-11T11:18:21.123Z,43.17
2018-10-11T11:20:51.961Z,51.40
2018-10-11T11:23:22.953Z,44.35
2018-10-11T11:25:53.741Z,40.78
2018-10-11T11:31:00.210Z,42.33
2018-10-11T11:33:30.755Z,44.97
2018-10-11T11:36:01.830Z,44.10
2018-10-11T11:38:32.644Z,44.80
2018-10-11T11:41:03.861Z,44.23
2018-10-11T11:43:34.667Z,44.27
2018-10-11T11:46:06.544Z,49.50
2018-10-11T11:48:37.143Z,44.20
2018-10-11T11:51:09.212Z,46.73
2018-10-11T11:53:41.208Z,47.23
2018-10-11T11:56:11.999Z,42.58
2018-10-11T11:58:43.006Z,43.70
2018-10-11T12:01:14.765Z,41.70
2018-10-11T12:03:45.501Z,40.17
2018-10-11T12:06:15.931Z,38.08
2018-10-11T12:08:46.592Z,31.63
2018-10-11T12:11:17.228Z,36.75
2018-10-11T12:13:47.962Z,38.48
2018-10-11T12:16:18.757Z,40.95
2018-10-11T12:18:49.549Z,36.85
2018-10-11T12:21:21.007Z,37.88
2018-10-11T12:23:51.518Z,36.93
2018-10-11T12:26:22.645Z,43.30
2018-10-11T12:28:53.753Z,34.98
2018-10-11T12:31:24.433Z,50.38
2018-10-11T12:33:55.582Z,35.90
2018-10-11T12:36:26.564Z,32.07
2018-10-11T12:38:57.047Z,36.10
2018-10-11T12:44:03.635Z,29.80
2018-10-11T12:46:34.967Z,31.63
2018-10-11T12:49:06.229Z,29.80
2018-10-11T12:51:36.934Z,32.38
2018-10-11T12:56:47.840Z,32.97
2018-10-11T12:59:18.578Z,24.73
2018-10-11T13:01:49.435Z,28.60
2018-10-11T13:04:20.579Z,32.58
2018-10-11T13:06:51.334Z,30.32
2018-10-11T13:09:22.361Z,26.90
2018-10-11T13:11:53.003Z,26.75
2018-10-11T13:14:24.472Z,27.03
2018-10-11T13:16:56.008Z,25.17
2018-10-11T13:19:26.720Z,25.55
2018-10-11T13:21:57.943Z,25.13
2018-10-11T13:24:28.677Z,25.85
2018-10-11T13:26:59.965Z,25.47
2018-10-11T13:29:34.708Z,23.52
2018-10-11T13:32:05.785Z,23.37
2018-10-11T13:34:36.334Z,24.57
2018-10-11T13:37:07.635Z,24.02
2018-10-11T13:39:38.446Z,23.02
2018-10-11T13:42:09.787Z,24.13
2018-10-11T13:44:41.298Z,24.03
2018-10-11T13:47:12.262Z,27.70
2018-10-11T13:49:43.580Z,25.50
2018-10-11T13:52:17.049Z,29.42
2018-10-11T13:54:45.291Z,32.78
2018-10-11T13:59:52.165Z,24.97
2018-10-11T14:02:23.371Z,21.60
2018-10-11T14:04:53.986Z,23.85
2018-10-11T14:07:31.313Z,21.73
2018-10-11T14:10:02.347Z,22.77
2018-10-11T14:12:33.763Z,22.05
2018-10-11T14:15:05.391Z,21.93
2018-10-11T14:20:11.949Z,22.10
2018-10-11T14:22:43.822Z,22.17
2018-10-11T14:27:51.086Z,22.93
2018-10-11T14:30:21.939Z,23.18
2018-10-11T14:32:52.467Z,21.48
2018-10-11T14:35:23.469Z,19.30
2018-10-11T14:40:30.093Z,19.60
2018-10-11T14:43:00.996Z,21.65
2018-10-11T14:45:32.414Z,19.10
2018-10-11T14:48:04.684Z,21.33
2018-10-11T14:53:12.603Z,19.43
2018-10-11T14:55:44.275Z,21.42
2018-10-11T14:58:15.307Z,21.70
2018-10-11T15:00:46.033Z,19.02
2018-10-11T15:03:17.220Z,22.80
2018-10-11T15:05:47.910Z,22.00
2018-10-11T15:10:54.574Z,25.67
2018-10-11T15:13:25.677Z,24.35
2018-10-11T15:15:56.491Z,24.57
2018-10-11T15:18:27.599Z,22.00
2018-10-11T15:20:58.889Z,23.47
2018-10-11T15:23:29.610Z,25.50
2018-10-11T15:26:00.356Z,25.97
2018-10-11T15:28:31.477Z,24.92
2018-10-11T15:31:02.267Z,26.37
2018-10-11T15:33:34.023Z,29.48
2018-10-11T15:36:05.205Z,26.07
2018-10-11T15:41:12.849Z,28.70
2018-10-11T15:43:43.918Z,27.00
2018-10-11T15:46:14.845Z,30.33
2018-10-11T15:48:45.756Z,32.07
2018-10-11T15:51:16.776Z,29.87
2018-10-11T15:53:47.813Z,29.82
2018-10-11T15:56:18.989Z,30.30
2018-10-11T15:58:49.789Z,32.23
2018-10-11T16:01:20.895Z,28.03
2018-10-11T16:03:51.872Z,28.52
2018-10-11T16:06:22.960Z,27.77
2018-10-11T16:08:54.730Z,30.90
2018-10-11T16:11:25.582Z,32.73
2018-10-11T16:13:56.794Z,34.03
2018-10-11T16:16:27.438Z,29.70
2018-10-11T16:18:58.192Z,31.40
2018-10-11T16:21:29.696Z,33.77
2018-10-11T16:24:00.920Z,32.07
2018-10-11T16:26:31.794Z,35.13
2018-10-11T16:29:03.774Z,31.12
2018-10-11T16:31:34.752Z,40.87
2018-10-11T16:34:06.272Z,32.85
2018-10-11T16:36:36.818Z,37.03
2018-10-11T16:39:09.390Z,38.63
2018-10-11T16:41:40.421Z,42.70
2018-10-11T16:44:11.583Z,34.10
2018-10-11T16:46:42.520Z,41.03
2018-10-11T16:49:17.392Z,36.20
2018-10-11T16:51:48.355Z,37.20
2018-10-11T16:54:18.991Z,33.63
2018-10-11T16:56:49.811Z,36.70
2018-10-11T16:59:20.703Z,39.85
2018-10-11T17:04:28.501Z,37.33
2018-10-11T17:06:59.444Z,43.87
2018-10-11T17:09:30.449Z,37.03
2018-10-11T17:12:02.014Z,38.25
2018-10-11T17:14:33.079Z,39.18
2018-10-11T17:17:03.881Z,39.20
2018-10-11T17:21:22.726Z,36.20
2018-10-11T17:23:55.829Z,34.58
2018-10-11T17:26:27.601Z,39.40
2018-10-11T17:28:59.937Z,39.40
2018-10-11T17:31:31.524Z,37.77
2018-10-11T17:34:03.132Z,42.73
2018-10-11T17:36:34.840Z,39.10
2018-10-11T17:39:09.832Z,37.30
2018-10-11T17:44:18.973Z,42.20
2018-10-11T17:46:50.562Z,45.17
2018-10-11T17:49:22.880Z,43.70
2018-10-11T17:51:54.588Z,45.45
2018-10-11T17:54:26.358Z,46.67
2018-10-11T17:56:58.112Z,43.78
2018-10-11T17:59:29.815Z,37.00
2018-10-11T18:02:11.947Z,33.88
2018-10-11T18:04:44.359Z,35.57
2018-10-11T18:07:16.172Z,33.08
2018-10-11T18:09:47.822Z,35.33
2018-10-11T18:12:19.446Z,36.80
2018-10-11T18:14:51.013Z,30.27
2018-10-11T18:17:26.985Z,37.40
2018-10-11T18:19:58.841Z,32.15
2018-10-11T18:22:30.603Z,31.00
2018-10-11T18:25:02.069Z,30.00
2018-10-11T18:27:33.981Z,31.40
2018-10-11T18:32:42.328Z,38.67
2018-10-11T18:35:13.927Z,31.17
2018-10-11T18:37:45.472Z,31.60
2018-10-11T18:40:17.511Z,29.30
2018-10-11T18:42:49.857Z,31.43
2018-10-11T18:45:21.425Z,28.60
2018-10-11T18:47:52.795Z,31.15
2018-10-11T18:50:24.542Z,28.73
2018-10-11T18:52:56.192Z,36.15
2018-10-11T18:55:28.386Z,33.63
2018-10-11T18:58:00.595Z,32.05
2018-10-11T19:00:32.096Z,32.17
2018-10-11T19:03:04.269Z,38.57
2018-10-11T19:05:36.279Z,35.65
2018-10-11T19:08:08.036Z,32.75
2018-10-11T19:10:39.611Z,34.90
2018-10-11T19:13:11.672Z,31.93
2018-10-11T19:15:43.511Z,34.23
2018-10-11T19:18:15.712Z,38.08
2018-10-11T19:20:47.230Z,37.70
2018-10-11T19:25:58.714Z,35.53
2018-10-11T19:28:32.143Z,34.23
2018-10-11T19:31:06.671Z,35.67
2018-10-11T19:33:38.574Z,39.35
2018-10-11T19:38:49.207Z,33.67
2018-10-11T19:41:21.535Z,39.08
2018-10-11T19:43:57.257Z,32.80
2018-10-11T19:46:28.825Z,34.43
2018-10-11T19:49:01.157Z,36.25
2018-10-11T19:51:33.084Z,40.55
2018-10-11T19:54:05.183Z,37.90
2018-10-11T19:56:37.169Z,33.85
2018-10-11T19:59:09.540Z,34.17
2018-10-11T20:01:42.108Z,45.27
2018-10-11T20:04:14.023Z,45.50
2018-10-11T20:06:45.993Z,54.00
2018-10-11T20:09:17.588Z,45.38
2018-10-11T20:11:49.002Z,35.80
2018-10-11T20:14:21.412Z,40.48
2018-10-11T20:16:53.394Z,41.40
2018-10-11T20:19:25.146Z,39.37
2018-10-11T20:21:57.027Z,36.05
2018-10-11T20:24:28.941Z,36.07
2018-10-11T20:27:01.350Z,31.90
2018-10-11T20:29:33.707Z,32.77
2018-10-11T20:32:06.829Z,34.63
2018-10-11T20:34:38.836Z,37.70
2018-10-11T20:37:10.516Z,41.43
2018-10-11T20:39:42.427Z,34.23
2018-10-11T20:42:14.611Z,39.78
2018-10-11T20:44:46.673Z,41.07
2018-10-11T20:47:18.913Z,36.15
2018-10-11T20:49:51.017Z,40.23
2018-10-11T20:52:22.889Z,35.90
2018-10-11T20:54:54.648Z,41.70
2018-10-11T21:00:03.316Z,32.43
2018-10-11T21:02:35.563Z,34.40
2018-10-11T21:05:07.641Z,36.03
2018-10-11T21:07:39.509Z,40.03
2018-10-11T21:10:16.206Z,35.55
2018-10-11T21:12:48.310Z,38.78
2018-10-11T21:15:20.280Z,37.15
2018-10-11T21:17:52.278Z,33.40
2018-10-11T21:20:24.289Z,40.73
2018-10-11T21:22:55.862Z,36.60
2018-10-11T21:25:27.620Z,28.80
2018-10-11T21:27:59.257Z,36.53
2018-10-11T21:30:31.091Z,29.75
2018-10-11T21:33:03.198Z,32.85
2018-10-11T21:35:35.196Z,33.50
2018-10-11T21:38:07.168Z,33.65
2018-10-11T21:40:39.551Z,27.47
2018-10-11T21:43:11.941Z,29.37
2018-10-11T21:45:44.357Z,27.97
2018-10-11T21:48:16.147Z,29.82
2018-10-11T21:50:48.128Z,28.73
2018-10-11T21:53:19.961Z,28.80
2018-10-11T21:55:51.639Z,35.13
2018-10-11T21:58:23.620Z,26.93
2018-10-11T22:01:01.077Z,27.03
2018-10-11T22:03:33.103Z,32.10
2018-10-11T22:06:05.385Z,27.70
2018-10-11T22:11:14.535Z,27.73
2018-10-11T22:13:46.407Z,28.20
2018-10-11T22:16:19.145Z,26.75
2018-10-11T22:18:51.974Z,33.80
2018-10-11T22:21:23.737Z,30.43
2018-10-11T22:23:55.741Z,31.17
2018-10-11T22:29:03.446Z,29.90
2018-10-11T22:31:35.432Z,29.07
2018-10-11T22:34:07.398Z,28.62
2018-10-11T22:39:16.050Z,29.50
2018-10-11T22:41:48.072Z,27.60
2018-10-11T22:44:20.109Z,35.07
2018-10-11T22:49:29.840Z,30.60
2018-10-11T22:52:01.612Z,29.05
2018-10-11T22:54:33.220Z,30.70
2018-10-11T22:57:05.899Z,29.18
2018-10-11T23:02:14.258Z,25.93
2018-10-11T23:07:22.584Z,26.27
2018-10-11T23:09:54.440Z,26.47
2018-10-11T23:12:26.414Z,31.20
2018-10-11T23:14:58.430Z,27.77
2018-10-11T23:17:30.746Z,31.00
2018-10-11T23:20:02.975Z,29.12
2018-10-11T23:22:35.773Z,25.17
2018-10-11T23:25:07.883Z,32.23
2018-10-11T23:27:40.278Z,32.27
2018-10-11T23:30:13.220Z,27.55
2018-10-11T23:35:20.774Z,31.13
2018-10-11T23:37:52.481Z,27.25
2018-10-11T23:43:00.123Z,28.30
2018-10-11T23:45:31.843Z,33.18
2018-10-11T23:48:03.878Z,32.17
2018-10-11T23:50:36.451Z,30.08
2018-10-11T23:53:08.949Z,28.52
2018-10-11T23:55:44.897Z,30.27
2018-10-11T23:58:16.689Z,28.10
